createdAt,value
2023-08-11T00:04:20.571Z,6.63
2023-08-11T00:14:29.394Z,5.35
2023-08-11T00:24:31.328Z,5.22
2023-08-11T00:34:35.243Z,5.80
2023-08-11T00:44:37.258Z,6.75
2023-08-11T00:54:47.750Z,5.78
2023-08-11T01:04:50.057Z,6.35
2023-08-11T01:15:27.019Z,5.28
2023-08-11T01:25:31.233Z,5.68
2023-08-11T01:35:58.605Z,7.93
2023-08-11T01:46:00.916Z,6.38
2023-08-11T01:56:04.296Z,5.78
2023-08-11T02:06:07.234Z,6.53
2023-08-11T02:16:17.251Z,5.28
2023-08-11T02:26:19.220Z,5.75
2023-08-11T02:36:22.226Z,5.35
2023-08-11T02:46:25.143Z,5.32
2023-08-11T02:56:27.112Z,5.68
2023-08-11T03:06:29.277Z,5.53
2023-08-11T03:16:34.029Z,5.65
2023-08-11T03:26:35.951Z,5.85
2023-08-11T03:36:37.902Z,4.95
2023-08-11T03:46:42.005Z,4.78
2023-08-11T03:56:45.087Z,4.80
2023-08-11T04:06:53.342Z,5.53
2023-08-11T04:16:55.672Z,4.22
2023-08-11T04:26:57.609Z,4.82
2023-08-11T04:37:06.705Z,5.55
2023-08-11T04:47:24.856Z,5.63
2023-08-11T04:57:26.852Z,4.60
2023-08-11T05:07:28.859Z,4.13
2023-08-11T05:17:32.442Z,3.90
2023-08-11T05:27:35.648Z,4.45
2023-08-11T05:37:42.617Z,4.50
2023-08-11T05:47:44.649Z,3.80
2023-08-11T05:57:46.702Z,4.68
2023-08-11T06:08:00.111Z,3.40
2023-08-11T06:18:08.287Z,3.28
2023-08-11T06:28:18.413Z,2.92
2023-08-11T06:38:21.542Z,2.88
2023-08-11T06:48:31.792Z,1.33
2023-08-11T06:58:34.742Z,1.77
2023-08-11T07:08:44.612Z,1.65
2023-08-11T07:18:46.500Z,1.65
2023-08-11T07:28:48.547Z,1.05
2023-08-11T07:39:09.209Z,1.63
2023-08-11T07:49:21.561Z,2.13
2023-08-11T07:59:48.253Z,2.05
2023-08-11T08:09:50.243Z,1.50
2023-08-11T08:19:58.647Z,1.30
2023-08-11T08:30:00.600Z,2.13
2023-08-11T08:40:03.134Z,1.40
2023-08-11T08:50:05.910Z,1.30
2023-08-11T09:00:16.131Z,1.52
2023-08-11T09:10:19.783Z,1.60
2023-08-11T09:20:30.686Z,0.95
2023-08-11T09:30:33.213Z,1.73
2023-08-11T09:40:36.644Z,1.30
2023-08-11T09:50:42.261Z,1.13
2023-08-11T10:00:46.627Z,1.33
2023-08-11T10:10:48.801Z,0.98
2023-08-11T10:20:52.724Z,1.00
2023-08-11T10:31:00.291Z,1.05
2023-08-11T10:41:05.138Z,1.02
2023-08-11T10:51:24.630Z,1.08
2023-08-11T11:01:26.887Z,1.15
2023-08-11T11:11:29.084Z,1.33
2023-08-11T11:21:32.309Z,1.33
2023-08-11T11:31:36.999Z,1.10
2023-08-11T11:41:39.838Z,1.40
2023-08-11T11:51:43.587Z,1.30
2023-08-11T12:01:46.959Z,1.50
2023-08-11T12:11:50.179Z,0.93
2023-08-11T12:21:52.202Z,1.10
2023-08-11T12:31:54.335Z,1.25
2023-08-11T12:41:56.697Z,1.55
2023-08-11T12:51:58.816Z,1.65
2023-08-11T13:02:08.133Z,1.63
2023-08-11T13:12:19.524Z,1.67
2023-08-11T13:22:21.563Z,1.88
2023-08-11T13:32:31.749Z,1.70
2023-08-11T13:42:44.225Z,1.40
2023-08-11T13:52:51.280Z,2.42
2023-08-11T14:03:10.598Z,2.08
2023-08-11T14:13:15.968Z,1.55
2023-08-11T14:23:19.041Z,1.88
2023-08-11T14:33:21.246Z,1.83
2023-08-11T14:43:23.346Z,2.75
2023-08-11T14:53:31.530Z,1.98
2023-08-11T15:03:41.678Z,3.20
2023-08-11T15:13:53.030Z,1.30
2023-08-11T15:23:57.106Z,1.67
2023-08-11T15:34:15.462Z,1.70
2023-08-11T15:44:18.646Z,1.90
2023-08-11T15:54:30.131Z,1.48
2023-08-11T16:04:38.381Z,1.52
2023-08-11T16:14:49.596Z,1.63
2023-08-11T16:24:51.752Z,1.48
2023-08-11T16:34:57.903Z,1.30
2023-08-11T16:44:59.958Z,1.50
2023-08-11T16:55:07.033Z,1.60
2023-08-11T17:05:10.513Z,1.30
2023-08-11T17:15:12.910Z,1.20
2023-08-11T17:25:19.100Z,1.20
2023-08-11T17:35:29.087Z,1.25
2023-08-11T17:45:40.024Z,1.10
2023-08-11T17:55:45.073Z,1.80
2023-08-11T18:05:54.248Z,1.27
2023-08-11T18:16:03.582Z,1.60
2023-08-11T18:26:17.869Z,1.73
2023-08-11T18:36:46.055Z,1.58
2023-08-11T18:46:54.229Z,2.22
2023-08-11T19:07:03.341Z,7.82
2023-08-11T19:17:14.004Z,5.55
2023-08-11T19:27:27.726Z,3.55
2023-08-11T19:37:31.207Z,3.38
2023-08-11T19:47:41.797Z,2.85
2023-08-11T19:57:46.138Z,3.15
2023-08-11T20:07:49.282Z,3.35
2023-08-11T20:17:51.736Z,2.92
2023-08-11T20:27:54.260Z,3.03
2023-08-11T20:38:03.418Z,3.50
2023-08-11T20:48:15.995Z,3.83
2023-08-11T20:58:24.565Z,4.93
2023-08-11T21:08:29.082Z,5.22
2023-08-11T21:18:32.124Z,7.82
2023-08-11T21:28:54.250Z,8.43
2023-08-11T21:39:21.742Z,8.75
2023-08-11T21:49:34.499Z,9.55
2023-08-11T21:59:38.952Z,8.23
2023-08-11T22:09:47.169Z,10.30
2023-08-11T22:19:59.664Z,9.32
2023-08-11T22:30:09.694Z,9.48
2023-08-11T22:40:13.842Z,8.52
2023-08-11T22:50:17.319Z,7.22
2023-08-11T23:00:20.147Z,7.13
2023-08-11T23:10:23.453Z,8.18
2023-08-11T23:20:26.411Z,7.40
2023-08-11T23:30:28.966Z,6.38
2023-08-11T23:40:43.984Z,7.50
2023-08-11T23:50:59.912Z,6.53
